Time;durP1;ratioP1;P1;durP2;ratioP2;P2;SDS_P1;SDS_P2;PMS_P1;PMS_P2;Temp;Humidity;BMP_temperature;BMP_pressure;BME280_temperature;BME280_humidity;BME280_pressure;Samples;Min_cycle;Max_cycle;Signal;HPM_P1;HPM_P2
2024/02/06 00:00:34;;;;;;;10.07;4.03;;;7.30;99.90;;;;;;5027288;28;20189;-75
2024/02/06 00:03:00;;;;;;;8.53;4.20;;;7.40;99.90;;;;;;4996542;28;20723;-74
2024/02/06 00:05:26;;;;;;;8.00;4.07;;;7.40;99.90;;;;;;5010337;28;20196;-73
2024/02/06 00:07:51;;;;;;;12.70;4.50;;;7.40;99.90;;;;;;5027408;28;20174;-73
2024/02/06 00:10:17;;;;;;;15.43;4.93;;;7.30;99.90;;;;;;5031216;28;20181;-74
2024/02/06 00:12:43;;;;;;;7.73;4.20;;;7.30;99.90;;;;;;5026459;28;20180;-73
2024/02/06 00:15:09;;;;;;;12.53;4.40;;;7.40;99.90;;;;;;5006440;28;20212;-74
2024/02/06 00:17:34;;;;;;;8.20;3.90;;;7.40;99.90;;;;;;5008567;28;20200;-73
2024/02/06 00:20:00;;;;;;;9.30;4.10;;;7.30;99.90;;;;;;5008575;28;20439;-74
2024/02/06 00:22:27;;;;;;;13.47;4.17;;;7.40;99.90;;;;;;5009615;28;20201;-74
2024/02/06 00:24:53;;;;;;;8.43;3.60;;;7.30;99.90;;;;;;5012449;28;20180;-73
2024/02/06 00:27:18;;;;;;;13.27;4.37;;;7.40;99.90;;;;;;5027484;28;21071;-74
2024/02/06 00:29:44;;;;;;;11.60;4.23;;;7.40;99.90;;;;;;5005644;28;20177;-74
2024/02/06 00:32:11;;;;;;;8.77;4.20;;;7.40;99.90;;;;;;4991048;28;20607;-74
2024/02/06 00:34:37;;;;;;;10.37;3.87;;;7.50;99.90;;;;;;5025685;28;20209;-74
2024/02/06 00:37:03;;;;;;;13.37;4.80;;;7.40;99.90;;;;;;5009364;28;20444;-74
2024/02/06 00:39:28;;;;;;;8.23;4.33;;;7.40;99.90;;;;;;5028717;28;20229;-74
2024/02/06 00:41:54;;;;;;;16.17;5.17;;;7.40;99.90;;;;;;4999479;28;20180;-73
2024/02/06 00:44:20;;;;;;;10.30;4.57;;;7.40;99.90;;;;;;5029586;28;20180;-75
2024/02/06 00:46:48;;;;;;;11.67;4.90;;;7.30;99.90;;;;;;5011980;28;20498;-75
2024/02/06 00:49:14;;;;;;;6.73;3.67;;;7.30;99.90;;;;;;5012203;28;20182;-75
2024/02/06 00:51:39;;;;;;;13.63;4.90;;;7.30;99.90;;;;;;5029372;28;20419;-73
2024/02/06 00:54:08;;;;;;;5.70;3.60;;;7.40;99.90;;;;;;5003935;28;20459;-74
2024/02/06 00:56:34;;;;;;;9.10;4.57;;;7.40;99.90;;;;;;4991549;28;20459;-76
2024/02/06 00:59:00;;;;;;;11.33;4.77;;;7.40;99.90;;;;;;5013169;28;20196;-75
2024/02/06 01:01:25;;;;;;;13.13;3.90;;;7.30;99.90;;;;;;4997685;28;20187;-73
2024/02/06 01:03:51;;;;;;;9.07;4.97;;;7.30;99.90;;;;;;5007774;28;20631;-74
2024/02/06 01:06:16;;;;;;;5.13;3.90;;;7.30;99.90;;;;;;5008058;28;20682;-73
2024/02/06 01:08:42;;;;;;;8.93;4.00;;;7.30;99.90;;;;;;5010060;28;20186;-74
2024/02/06 01:11:08;;;;;;;6.40;3.20;;;7.30;99.90;;;;;;5012255;28;20192;-75
2024/02/06 01:13:34;;;;;;;16.10;4.57;;;7.30;99.90;;;;;;5007370;28;20471;-73
2024/02/06 01:16:00;;;;;;;5.33;3.43;;;7.30;99.90;;;;;;4992665;28;20209;-74
2024/02/06 01:18:25;;;;;;;7.13;4.23;;;7.30;99.90;;;;;;4990868;28;20184;-74
2024/02/06 01:20:51;;;;;;;8.33;3.70;;;7.40;99.90;;;;;;5009147;28;20511;-74
2024/02/06 01:23:16;;;;;;;7.20;3.90;;;7.40;99.90;;;;;;4996563;28;20183;-73
2024/02/06 01:25:42;;;;;;;10.30;3.70;;;7.50;99.90;;;;;;5016637;28;20581;-73
2024/02/06 01:28:08;;;;;;;7.60;3.40;;;7.50;99.90;;;;;;4990100;28;20190;-74
2024/02/06 01:30:33;;;;;;;12.20;3.90;;;7.50;99.90;;;;;;5005047;28;20215;-76
2024/02/06 01:32:59;;;;;;;11.80;5.30;;;7.60;99.90;;;;;;5012273;28;20185;-75
2024/02/06 01:35:25;;;;;;;7.10;3.73;;;7.60;99.90;;;;;;5016531;28;20197;-74
2024/02/06 01:37:50;;;;;;;7.80;3.10;;;7.60;99.90;;;;;;5042102;28;20193;-73
2024/02/06 01:40:17;;;;;;;8.80;3.40;;;7.60;99.90;;;;;;5029820;28;20667;-73
2024/02/06 01:42:43;;;;;;;6.23;3.40;;;7.60;99.90;;;;;;4994858;28;20196;-74
2024/02/06 01:45:08;;;;;;;5.60;3.10;;;7.50;99.90;;;;;;5026850;28;20423;-73
2024/02/06 01:47:34;;;;;;;5.30;3.00;;;7.50;99.90;;;;;;5010033;28;20234;-73
2024/02/06 01:50:01;;;;;;;6.60;3.13;;;7.50;99.90;;;;;;5013515;28;20236;-73
2024/02/06 01:52:27;;;;;;;6.60;3.00;;;7.50;99.90;;;;;;5009235;28;20196;-73
2024/02/06 01:54:53;;;;;;;5.47;2.80;;;7.50;99.90;;;;;;5009981;28;20459;-74
2024/02/06 01:57:19;;;;;;;10.53;2.37;;;7.50;99.90;;;;;;5015748;28;20455;-74
2024/02/06 01:59:45;;;;;;;6.27;3.07;;;7.60;99.90;;;;;;4999354;28;20248;-73
2024/02/06 02:02:11;;;;;;;5.67;2.90;;;7.60;99.90;;;;;;4990441;28;20200;-74
2024/02/06 02:04:37;;;;;;;3.90;2.33;;;7.60;99.90;;;;;;5029864;28;20427;-74
2024/02/06 02:07:04;;;;;;;4.20;2.77;;;7.60;99.90;;;;;;5000270;28;20211;-74
2024/02/06 02:09:30;;;;;;;5.97;2.23;;;7.70;99.90;;;;;;5015066;28;20189;-74
2024/02/06 02:11:55;;;;;;;5.27;2.70;;;7.70;99.90;;;;;;5009516;28;20502;-73
2024/02/06 02:14:21;;;;;;;6.23;2.47;;;7.50;99.90;;;;;;5028555;28;20211;-74
2024/02/06 02:16:47;;;;;;;7.07;2.80;;;7.60;99.90;;;;;;5011052;28;20248;-74
2024/02/06 02:19:12;;;;;;;8.53;2.70;;;7.60;99.90;;;;;;5007441;28;20184;-73
2024/02/06 02:21:38;;;;;;;4.80;2.47;;;7.60;99.90;;;;;;5010478;28;20180;-73
2024/02/06 02:24:04;;;;;;;4.00;1.90;;;7.60;99.90;;;;;;5009087;28;20714;-74
2024/02/06 02:26:31;;;;;;;3.03;2.10;;;7.60;99.90;;;;;;5024091;28;20255;-74
2024/02/06 02:28:57;;;;;;;5.60;2.20;;;7.50;99.90;;;;;;5027440;28;20493;-74
2024/02/06 02:31:24;;;;;;;2.93;2.50;;;7.50;99.90;;;;;;5009044;28;20873;-76
2024/02/06 02:33:50;;;;;;;2.37;1.80;;;7.40;99.90;;;;;;5009309;28;20961;-75
2024/02/06 02:36:15;;;;;;;4.83;2.07;;;7.40;99.90;;;;;;5010813;28;20465;-73
2024/02/06 02:38:42;;;;;;;3.27;1.70;;;7.50;99.90;;;;;;5014842;28;20247;-74
2024/02/06 02:41:08;;;;;;;5.60;2.37;;;7.50;99.90;;;;;;5011093;28;20276;-74
2024/02/06 02:43:33;;;;;;;9.83;2.67;;;7.50;99.90;;;;;;5005665;28;20536;-75
2024/02/06 02:45:59;;;;;;;2.30;2.00;;;7.40;99.90;;;;;;5025490;28;20232;-74
2024/02/06 02:48:25;;;;;;;2.00;1.60;;;7.40;99.90;;;;;;5026957;28;20236;-73
2024/02/06 02:50:50;;;;;;;4.87;2.80;;;7.40;99.90;;;;;;4993545;28;20189;-74
2024/02/06 02:53:16;;;;;;;1.77;1.50;;;7.40;99.90;;;;;;4993025;28;20209;-73
2024/02/06 02:55:42;;;;;;;4.23;1.97;;;7.40;99.90;;;;;;4993447;28;20710;-73
2024/02/06 02:58:07;;;;;;;2.67;1.60;;;7.50;99.90;;;;;;5012808;28;20188;-73
2024/02/06 03:00:34;;;;;;;3.63;1.93;;;7.40;99.90;;;;;;5022850;28;20196;-73
2024/02/06 03:03:00;;;;;;;11.83;2.40;;;7.50;99.90;;;;;;5009968;28;20185;-74
2024/02/06 03:05:26;;;;;;;8.10;2.37;;;7.40;99.90;;;;;;5008919;28;20427;-73
2024/02/06 03:07:51;;;;;;;3.27;2.07;;;7.40;99.90;;;;;;5009945;28;20178;-74
2024/02/06 03:10:17;;;;;;;2.73;1.50;;;7.30;99.90;;;;;;5025616;28;20192;-73
2024/02/06 03:12:43;;;;;;;4.37;2.13;;;7.30;99.90;;;;;;5030114;28;20185;-74
2024/02/06 03:15:08;;;;;;;5.10;2.77;;;7.40;99.90;;;;;;4995904;28;20209;-73
2024/02/06 03:17:34;;;;;;;6.83;3.00;;;7.40;99.90;;;;;;5008668;28;20197;-74
2024/02/06 03:20:01;;;;;;;4.37;2.67;;;7.40;99.90;;;;;;5011130;28;20303;-74
2024/02/06 03:22:32;;;;;;;4.67;2.67;;;7.40;99.90;;;;;;5032295;28;20219;-74
2024/02/06 03:24:58;;;;;;;2.67;2.23;;;7.40;99.90;;;;;;5006953;28;20440;-73
2024/02/06 03:27:24;;;;;;;2.50;1.93;;;7.40;99.90;;;;;;5009120;28;20526;-73
2024/02/06 03:29:50;;;;;;;2.40;2.00;;;7.50;99.90;;;;;;4992755;28;20507;-73
2024/02/06 03:32:16;;;;;;;4.77;2.90;;;7.50;99.90;;;;;;5010857;28;20263;-73
2024/02/06 03:34:41;;;;;;;4.50;2.80;;;7.60;99.90;;;;;;5012833;28;20221;-74
2024/02/06 03:37:07;;;;;;;3.93;2.60;;;7.60;99.90;;;;;;4986467;28;20292;-73
2024/02/06 03:39:33;;;;;;;3.13;1.90;;;7.60;99.90;;;;;;5007674;28;20231;-74
2024/02/06 03:41:59;;;;;;;3.70;2.87;;;7.50;99.90;;;;;;5010154;28;20420;-74
2024/02/06 03:44:24;;;;;;;12.43;3.77;;;7.50;99.90;;;;;;5008372;28;20240;-73
2024/02/06 03:46:50;;;;;;;8.77;3.50;;;7.50;99.90;;;;;;5004225;28;20221;-74
2024/02/06 03:49:16;;;;;;;4.03;2.87;;;7.50;99.90;;;;;;5010278;28;20260;-73
2024/02/06 03:51:42;;;;;;;3.80;2.90;;;7.50;99.90;;;;;;5031108;28;20631;-75
2024/02/06 03:54:07;;;;;;;6.17;3.63;;;7.50;99.90;;;;;;5033346;28;20224;-74
2024/02/06 03:56:33;;;;;;;4.70;3.67;;;7.50;99.90;;;;;;5013452;28;20287;-74
2024/02/06 03:58:58;;;;;;;10.17;4.90;;;7.50;99.90;;;;;;5010989;28;20180;-73
2024/02/06 04:01:24;;;;;;;7.13;4.83;;;7.40;99.90;;;;;;4990610;28;20235;-74
2024/02/06 04:03:50;;;;;;;6.80;4.57;;;7.40;99.90;;;;;;4994192;28;20613;-73
2024/02/06 04:06:16;;;;;;;6.03;4.30;;;7.40;99.90;;;;;;5010608;28;20204;-73
2024/02/06 04:08:42;;;;;;;8.87;5.60;;;7.30;99.90;;;;;;5007655;28;20215;-74
2024/02/06 04:11:12;;;;;;;8.60;4.60;;;7.30;99.90;;;;;;5008278;28;20569;-73
2024/02/06 04:13:39;;;;;;;8.90;4.53;;;7.30;99.90;;;;;;5023983;28;20554;-73
2024/02/06 04:16:05;;;;;;;8.80;5.50;;;7.30;99.90;;;;;;5009559;28;20456;-74
2024/02/06 04:18:31;;;;;;;9.27;5.67;;;7.40;99.90;;;;;;5011031;28;20485;-74
2024/02/06 04:20:57;;;;;;;6.53;4.23;;;7.20;99.90;;;;;;5008170;28;20777;-74
2024/02/06 04:23:23;;;;;;;7.70;4.40;;;7.30;99.90;;;;;;5008080;28;20430;-74
2024/02/06 04:25:49;;;;;;;12.87;4.80;;;7.40;99.90;;;;;;5006966;28;20207;-73
2024/02/06 04:28:15;;;;;;;7.40;4.67;;;7.30;99.90;;;;;;5009104;28;20192;-74
2024/02/06 04:30:41;;;;;;;16.03;5.23;;;7.30;99.90;;;;;;5011111;28;20208;-73
2024/02/06 04:33:08;;;;;;;8.77;5.17;;;7.20;99.90;;;;;;5011145;28;20909;-74
2024/02/06 04:35:35;;;;;;;7.03;4.50;;;7.20;99.90;;;;;;5025624;28;20557;-74
2024/02/06 04:38:01;;;;;;;6.17;4.70;;;7.20;99.90;;;;;;5006726;28;20432;-74
2024/02/06 04:40:26;;;;;;;6.60;4.67;;;7.20;99.90;;;;;;5008297;28;20482;-73
2024/02/06 04:42:52;;;;;;;9.83;5.07;;;7.20;99.90;;;;;;5020334;28;20238;-74
2024/02/06 04:45:18;;;;;;;9.87;3.90;;;7.10;99.90;;;;;;5031449;28;20185;-73
2024/02/06 04:47:43;;;;;;;5.83;4.17;;;7.00;99.90;;;;;;4993330;28;20228;-73
2024/02/06 04:50:10;;;;;;;8.50;4.40;;;7.10;99.90;;;;;;5025314;28;20181;-72
2024/02/06 04:52:35;;;;;;;8.90;4.70;;;7.10;99.90;;;;;;5025659;28;20189;-74
2024/02/06 04:55:01;;;;;;;7.13;4.17;;;7.10;99.90;;;;;;4991636;28;20466;-74
2024/02/06 04:57:27;;;;;;;7.53;3.70;;;7.10;99.90;;;;;;4994167;28;20210;-73
2024/02/06 04:59:53;;;;;;;6.97;3.63;;;7.20;99.90;;;;;;5027021;28;20184;-75
2024/02/06 05:02:18;;;;;;;8.57;3.60;;;7.20;99.90;;;;;;5029492;28;20232;-73
2024/02/06 05:04:44;;;;;;;5.30;3.50;;;7.10;99.90;;;;;;5008542;28;20463;-75
2024/02/06 05:07:10;;;;;;;8.30;4.03;;;7.00;99.90;;;;;;5024440;28;20247;-74
2024/02/06 05:09:36;;;;;;;9.53;4.10;;;7.00;99.90;;;;;;5007226;28;20195;-75
2024/02/06 05:12:02;;;;;;;5.27;3.30;;;7.10;99.90;;;;;;5025287;28;20199;-74
2024/02/06 05:14:31;;;;;;;5.37;4.00;;;7.10;99.90;;;;;;5007481;28;20467;-74
2024/02/06 05:16:56;;;;;;;4.50;3.27;;;7.10;99.90;;;;;;5006700;28;20205;-75
2024/02/06 05:19:22;;;;;;;4.70;3.20;;;7.00;99.90;;;;;;5005483;28;20433;-74
2024/02/06 05:21:49;;;;;;;2.43;2.23;;;7.00;99.90;;;;;;5025165;28;20185;-74
2024/02/06 05:24:14;;;;;;;3.57;3.13;;;7.10;99.90;;;;;;5023649;28;20204;-74
2024/02/06 05:26:40;;;;;;;9.73;3.77;;;7.10;99.90;;;;;;4996174;28;20475;-74
2024/02/06 05:29:06;;;;;;;5.00;3.50;;;7.20;99.90;;;;;;5025766;28;20184;-73
2024/02/06 05:31:32;;;;;;;4.93;3.17;;;7.20;99.90;;;;;;5007051;28;20202;-74
2024/02/06 05:33:58;;;;;;;4.33;3.43;;;7.20;99.90;;;;;;5020494;28;20467;-73
2024/02/06 05:36:24;;;;;;;4.90;3.53;;;7.10;99.90;;;;;;5006096;28;20448;-73
2024/02/06 05:38:50;;;;;;;11.53;3.43;;;7.10;99.90;;;;;;4995651;28;20431;-72
2024/02/06 05:41:17;;;;;;;3.97;2.93;;;7.10;99.90;;;;;;5006954;28;20508;-73
2024/02/06 05:43:43;;;;;;;9.13;3.50;;;7.10;99.90;;;;;;5006005;28;20428;-74
2024/02/06 05:46:09;;;;;;;3.13;2.60;;;7.20;99.90;;;;;;5005828;28;20859;-74
2024/02/06 05:48:35;;;;;;;6.17;3.43;;;7.10;99.90;;;;;;5009069;28;20193;-74
2024/02/06 05:51:04;;;;;;;4.00;2.90;;;7.10;99.90;;;;;;4989373;28;20178;-73
2024/02/06 05:53:33;;;;;;;5.93;3.63;;;7.10;99.90;;;;;;4983146;28;20471;-73
2024/02/06 05:56:00;;;;;;;4.70;4.27;;;7.10;99.90;;;;;;5005747;28;21037;-74
2024/02/06 05:58:26;;;;;;;6.77;3.67;;;7.20;99.90;;;;;;5011379;28;20432;-74
2024/02/06 06:00:52;;;;;;;5.00;3.53;;;7.30;99.90;;;;;;5008072;28;20435;-75
2024/02/06 06:03:18;;;;;;;6.20;2.97;;;7.20;99.90;;;;;;5024688;28;20435;-75
2024/02/06 06:05:43;;;;;;;4.67;3.70;;;7.20;99.90;;;;;;5008086;28;20443;-75
2024/02/06 06:08:09;;;;;;;3.60;2.90;;;7.30;99.90;;;;;;5009759;28;20196;-75
2024/02/06 06:10:34;;;;;;;5.23;3.70;;;7.30;99.90;;;;;;5021253;28;20196;-74
2024/02/06 06:13:00;;;;;;;5.33;3.03;;;7.20;99.90;;;;;;5026485;28;20638;-75
2024/02/06 06:15:26;;;;;;;5.00;3.10;;;7.20;99.90;;;;;;5005299;28;20268;-74
2024/02/06 06:17:52;;;;;;;7.03;3.70;;;7.20;99.90;;;;;;5028473;28;20232;-74
2024/02/06 06:20:18;;;;;;;5.00;2.70;;;7.30;99.90;;;;;;5032116;28;20196;-75
2024/02/06 06:22:43;;;;;;;3.10;2.80;;;7.30;99.90;;;;;;5014679;28;20465;-75
2024/02/06 06:25:09;;;;;;;5.20;3.50;;;7.30;99.90;;;;;;5032620;28;20185;-75
2024/02/06 06:27:37;;;;;;;5.20;3.60;;;7.20;99.90;;;;;;5009087;28;20253;-75
2024/02/06 06:30:05;;;;;;;6.07;3.63;;;7.10;99.90;;;;;;5009460;28;20189;-75
2024/02/06 06:32:31;;;;;;;5.83;3.67;;;7.10;99.90;;;;;;4990923;28;20455;-73
2024/02/06 06:34:56;;;;;;;4.57;3.17;;;7.10;99.90;;;;;;5021703;28;20472;-73
2024/02/06 06:37:22;;;;;;;5.10;3.20;;;7.10;99.90;;;;;;4992421;28;20314;-73
2024/02/06 06:39:48;;;;;;;6.67;3.40;;;7.10;99.90;;;;;;4992510;28;20180;-73
2024/02/06 06:42:15;;;;;;;3.90;2.90;;;7.10;99.90;;;;;;5014616;28;20184;-73
2024/02/06 06:44:41;;;;;;;10.27;3.00;;;7.10;99.90;;;;;;5011976;28;21100;-74
2024/02/06 06:47:08;;;;;;;3.77;2.90;;;7.00;99.90;;;;;;4998262;28;20621;-73
2024/02/06 06:49:34;;;;;;;5.43;3.10;;;7.00;99.90;;;;;;4992286;28;20555;-74
2024/02/06 06:52:00;;;;;;;4.73;3.07;;;7.00;99.90;;;;;;5028567;28;20439;-74
2024/02/06 06:54:25;;;;;;;6.47;3.70;;;7.00;99.90;;;;;;4992202;28;20575;-74
2024/02/06 06:56:51;;;;;;;5.40;3.30;;;7.10;99.90;;;;;;5032314;28;20204;-73
2024/02/06 06:59:17;;;;;;;9.97;3.43;;;7.00;99.90;;;;;;4990186;28;20591;-74
2024/02/06 07:01:42;;;;;;;5.60;3.97;;;7.00;99.90;;;;;;5005418;28;20189;-74
2024/02/06 07:04:09;;;;;;;6.40;3.13;;;6.90;99.90;;;;;;5022260;28;20264;-74
2024/02/06 07:06:35;;;;;;;5.40;3.50;;;7.00;99.90;;;;;;5025675;28;20308;-74
2024/02/06 07:09:01;;;;;;;4.97;3.13;;;7.00;99.90;;;;;;5008986;28;20521;-73
2024/02/06 07:11:27;;;;;;;4.73;3.70;;;7.10;99.90;;;;;;5009960;28;20455;-73
2024/02/06 07:13:52;;;;;;;8.60;3.30;;;7.10;99.90;;;;;;5008659;28;20205;-74
2024/02/06 07:16:19;;;;;;;7.03;4.27;;;7.10;99.90;;;;;;5025734;28;20224;-73
2024/02/06 07:18:45;;;;;;;5.57;4.27;;;7.00;99.90;;;;;;5008264;28;20236;-74
2024/02/06 07:21:11;;;;;;;5.93;4.10;;;7.00;99.90;;;;;;5009598;28;20416;-74
2024/02/06 07:23:37;;;;;;;12.10;3.87;;;7.00;99.90;;;;;;5029749;28;20185;-74
2024/02/06 07:26:04;;;;;;;6.17;4.33;;;7.00;99.90;;;;;;5013130;28;20201;-73
2024/02/06 07:28:30;;;;;;;5.80;3.97;;;7.00;99.90;;;;;;5022853;28;20471;-74
2024/02/06 07:30:56;;;;;;;7.27;3.53;;;7.00;99.90;;;;;;5025671;28;20427;-73
2024/02/06 07:33:21;;;;;;;5.73;3.63;;;7.10;99.90;;;;;;5007156;28;20189;-74
2024/02/06 07:35:47;;;;;;;6.40;4.30;;;7.10;99.90;;;;;;5007990;28;20200;-74
2024/02/06 07:38:13;;;;;;;7.10;4.47;;;7.00;99.90;;;;;;5011684;28;20173;-74
2024/02/06 07:40:38;;;;;;;6.00;4.00;;;7.10;99.90;;;;;;5008112;28;20533;-73
2024/02/06 07:43:04;;;;;;;7.27;3.97;;;7.10;99.90;;;;;;5026428;28;20223;-73
2024/02/06 07:45:30;;;;;;;4.67;3.87;;;7.10;99.90;;;;;;5010082;28;20173;-74
2024/02/06 07:47:56;;;;;;;6.53;4.43;;;7.10;99.90;;;;;;5025545;28;20458;-74
2024/02/06 07:50:22;;;;;;;9.50;4.90;;;7.10;99.90;;;;;;4996678;28;20186;-73
2024/02/06 07:52:47;;;;;;;6.07;3.90;;;7.10;99.90;;;;;;4991315;28;20551;-73
2024/02/06 07:55:13;;;;;;;6.30;3.80;;;7.10;99.90;;;;;;5008201;28;20288;-74
2024/02/06 07:57:39;;;;;;;7.33;3.80;;;7.10;99.90;;;;;;5025545;28;20292;-73
2024/02/06 08:00:05;;;;;;;4.83;3.70;;;7.20;99.90;;;;;;4992415;28;20181;-74
2024/02/06 08:02:32;;;;;;;8.40;4.43;;;7.20;99.90;;;;;;5006319;28;20535;-72
2024/02/06 08:04:59;;;;;;;10.50;4.63;;;7.20;99.90;;;;;;5007589;28;20481;-75
2024/02/06 08:07:28;;;;;;;5.97;4.60;;;7.20;99.90;;;;;;4993179;28;20717;-75
2024/02/06 08:09:55;;;;;;;6.13;3.50;;;7.20;99.90;;;;;;5012222;28;20435;-75
2024/02/06 08:12:21;;;;;;;6.50;3.83;;;7.20;99.90;;;;;;5021032;28;20463;-75
2024/02/06 08:14:47;;;;;;;8.60;5.23;;;7.20;99.90;;;;;;5023989;28;20510;-75
2024/02/06 08:17:13;;;;;;;11.00;4.30;;;7.20;99.90;;;;;;5025314;28;20443;-73
2024/02/06 08:19:39;;;;;;;23.10;4.77;;;7.20;99.90;;;;;;5025398;28;20427;-73
2024/02/06 08:22:05;;;;;;;7.00;4.70;;;7.20;99.90;;;;;;4990380;28;20487;-74
2024/02/06 08:24:31;;;;;;;5.83;4.30;;;7.20;99.90;;;;;;5007191;28;20852;-74
2024/02/06 08:26:56;;;;;;;6.33;3.83;;;7.20;99.90;;;;;;5006279;28;20472;-73
2024/02/06 08:29:22;;;;;;;7.03;4.30;;;7.20;99.90;;;;;;5007462;28;20542;-73
2024/02/06 08:31:48;;;;;;;8.20;4.20;;;7.30;99.90;;;;;;5007913;28;20651;-74
2024/02/06 08:34:14;;;;;;;4.40;3.27;;;7.30;99.90;;;;;;5024532;28;20196;-74
2024/02/06 08:36:39;;;;;;;7.27;4.40;;;7.30;99.90;;;;;;5006500;28;20789;-73
2024/02/06 08:39:06;;;;;;;8.33;3.57;;;7.40;99.90;;;;;;5009218;28;20177;-73
2024/02/06 08:41:35;;;;;;;4.40;3.43;;;7.40;99.90;;;;;;5006404;28;20815;-73
2024/02/06 08:44:02;;;;;;;6.20;3.67;;;7.40;99.90;;;;;;4990298;28;20431;-73
2024/02/06 08:46:28;;;;;;;4.50;3.50;;;7.40;99.90;;;;;;5006771;28;21128;-74
2024/02/06 08:48:54;;;;;;;5.67;3.40;;;7.40;99.90;;;;;;5002776;28;20527;-73
2024/02/06 08:51:20;;;;;;;6.80;3.73;;;7.40;99.90;;;;;;5007843;28;20280;-73
2024/02/06 08:53:46;;;;;;;7.63;2.90;;;7.40;99.90;;;;;;5024515;28;20467;-73
2024/02/06 08:56:12;;;;;;;8.10;3.83;;;7.50;99.90;;;;;;4987213;28;20506;-74
2024/02/06 08:58:38;;;;;;;5.20;3.77;;;7.50;99.90;;;;;;5024463;28;20196;-74
2024/02/06 09:01:03;;;;;;;5.40;3.33;;;7.60;99.90;;;;;;4990429;28;20439;-73
2024/02/06 09:03:29;;;;;;;4.13;2.97;;;7.60;99.90;;;;;;4990389;28;20188;-73
2024/02/06 09:05:56;;;;;;;6.87;3.23;;;7.60;99.90;;;;;;5006938;28;20212;-74
2024/02/06 09:08:22;;;;;;;5.57;3.23;;;7.60;99.90;;;;;;5007164;28;20276;-74
2024/02/06 09:10:47;;;;;;;4.73;3.70;;;7.60;99.90;;;;;;5009135;28;20522;-74
2024/02/06 09:13:13;;;;;;;6.30;3.87;;;7.70;99.90;;;;;;5026536;28;20189;-73
2024/02/06 09:15:39;;;;;;;4.27;3.30;;;7.70;99.90;;;;;;5026774;28;20280;-75
2024/02/06 09:18:05;;;;;;;8.67;3.80;;;7.70;99.90;;;;;;5006343;28;20531;-74
2024/02/06 09:20:30;;;;;;;4.53;3.40;;;7.70;99.90;;;;;;5024791;28;20189;-73
2024/02/06 09:22:56;;;;;;;8.50;4.60;;;7.70;99.90;;;;;;5036486;28;20189;-74
2024/02/06 09:25:22;;;;;;;5.33;4.50;;;7.70;99.90;;;;;;5008607;28;20177;-73
2024/02/06 09:27:48;;;;;;;9.13;3.80;;;7.80;99.90;;;;;;5006030;28;20275;-73
2024/02/06 09:30:14;;;;;;;3.97;3.57;;;7.80;99.90;;;;;;5029086;28;20510;-73
2024/02/06 09:32:40;;;;;;;5.60;4.60;;;7.80;99.90;;;;;;5025449;28;20276;-73
2024/02/06 09:35:06;;;;;;;7.33;4.40;;;7.80;99.90;;;;;;5007035;28;20284;-74
2024/02/06 09:37:32;;;;;;;3.90;3.33;;;7.80;99.90;;;;;;5011402;28;20447;-74
2024/02/06 09:39:58;;;;;;;7.70;4.47;;;7.80;99.90;;;;;;5007666;28;20474;-73
2024/02/06 09:42:24;;;;;;;8.70;4.27;;;7.90;99.90;;;;;;5007031;28;20471;-73
2024/02/06 09:44:50;;;;;;;7.83;4.67;;;7.90;99.90;;;;;;5004984;28;20224;-74
2024/02/06 09:47:15;;;;;;;6.93;4.73;;;7.90;99.90;;;;;;5004197;28;21011;-74
2024/02/06 09:49:41;;;;;;;4.90;3.80;;;7.90;99.90;;;;;;4986257;28;20202;-74
2024/02/06 09:52:09;;;;;;;8.63;5.20;;;7.90;99.90;;;;;;5028853;28;20554;-74
2024/02/06 09:54:41;;;;;;;4.63;2.50;;;8.00;99.90;;;;;;5014539;28;20742;-74
2024/02/06 09:57:07;;;;;;;5.87;4.40;;;8.00;99.90;;;;;;5020772;28;20455;-74
2024/02/06 09:59:34;;;;;;;7.70;4.33;;;8.00;99.90;;;;;;5027601;28;20433;-73
2024/02/06 10:02:01;;;;;;;8.47;4.30;;;8.00;99.90;;;;;;5013793;28;20203;-74
2024/02/06 10:04:31;;;;;;;6.60;4.80;;;8.00;99.90;;;;;;4995512;28;20526;-74
2024/02/06 10:06:58;;;;;;;6.50;5.00;;;8.00;99.90;;;;;;5028088;28;20527;-75
2024/02/06 10:09:26;;;;;;;7.80;5.10;;;8.00;99.90;;;;;;5010048;28;20431;-73
2024/02/06 10:11:54;;;;;;;7.03;4.90;;;8.00;99.90;;;;;;5009271;28;20459;-74
2024/02/06 10:14:20;;;;;;;9.40;5.13;;;8.00;99.90;;;;;;5026832;28;20471;-73
2024/02/06 10:16:45;;;;;;;5.90;4.83;;;8.00;99.90;;;;;;5007924;28;20452;-74
2024/02/06 10:19:13;;;;;;;5.80;4.00;;;8.10;99.90;;;;;;5009773;28;20185;-73
2024/02/06 10:21:39;;;;;;;4.23;3.83;;;8.10;99.90;;;;;;5010230;28;20208;-73
2024/02/06 10:24:05;;;;;;;6.20;3.90;;;8.10;99.90;;;;;;5023260;28;20416;-74
2024/02/06 10:26:32;;;;;;;5.40;3.70;;;8.10;99.90;;;;;;5036368;28;20442;-73
2024/02/06 10:29:08;;;;;;;4.37;3.97;;;8.10;99.90;;;;;;5033480;28;20517;-74
2024/02/06 10:31:35;;;;;;;9.83;6.97;;;8.10;99.90;;;;;;5009097;28;20444;-73
2024/02/06 10:34:30;;;;;;;5.13;3.97;;;8.10;99.90;;;;;;5025059;28;20475;-73
2024/02/06 10:36:59;;;;;;;6.20;3.97;;;8.10;99.90;;;;;;5023420;28;20451;-74
2024/02/06 10:39:28;;;;;;;5.37;4.47;;;8.10;99.90;;;;;;5023650;28;20427;-73
2024/02/06 10:42:04;;;;;;;11.20;9.20;;;8.20;99.90;;;;;;5030997;28;20505;-74
2024/02/06 10:44:30;;;;;;;8.67;7.37;;;8.20;99.90;;;;;;5007671;28;20437;-73
2024/02/06 10:47:02;;;;;;;8.60;4.50;;;8.20;99.90;;;;;;5011649;28;21007;-73
2024/02/06 10:49:30;;;;;;;6.73;3.70;;;8.20;99.90;;;;;;5008276;28;20216;-73
2024/02/06 10:52:07;;;;;;;5.70;4.00;;;8.20;99.90;;;;;;5008557;28;20442;-74
2024/02/06 10:54:34;;;;;;;5.17;3.70;;;8.20;99.90;;;;;;5026138;28;20482;-75
2024/02/06 10:57:07;;;;;;;5.43;4.70;;;8.20;99.90;;;;;;4988770;28;20451;-73
2024/02/06 10:59:50;;;;;;;5.90;4.77;;;8.20;99.90;;;;;;5028850;28;20447;-73
2024/02/06 11:02:23;;;;;;;5.57;3.27;;;8.30;99.90;;;;;;5008912;28;20423;-74
2024/02/06 11:05:02;;;;;;;7.67;4.67;;;8.20;99.90;;;;;;5025338;28;20455;-74
2024/02/06 11:07:33;;;;;;;5.10;3.80;;;8.20;99.90;;;;;;5031291;28;21160;-73
2024/02/06 11:10:01;;;;;;;6.60;4.17;;;8.20;99.90;;;;;;5030603;28;20427;-73
2024/02/06 11:12:28;;;;;;;4.20;3.80;;;8.30;99.90;;;;;;4996055;28;20436;-74
2024/02/06 11:14:59;;;;;;;5.27;3.67;;;8.30;99.90;;;;;;5008214;28;20510;-73
2024/02/06 11:17:25;;;;;;;6.43;4.43;;;8.30;99.90;;;;;;5025823;28;20446;-74
2024/02/06 11:20:04;;;;;;;6.17;4.07;;;8.30;99.90;;;;;;4991111;28;20463;-74
2024/02/06 11:22:44;;;;;;;7.83;5.07;;;8.30;99.90;;;;;;5008236;28;20964;-74
2024/02/06 11:25:18;;;;;;;9.30;4.37;;;8.40;99.90;;;;;;5029554;28;21037;-74
2024/02/06 11:27:46;;;;;;;6.23;4.90;;;8.40;99.90;;;;;;5011637;28;20439;-73
2024/02/06 11:30:14;;;;;;;6.93;4.67;;;8.40;99.90;;;;;;5015705;28;20430;-73
2024/02/06 11:32:39;;;;;;;9.63;4.33;;;8.40;99.90;;;;;;5006394;28;20480;-73
2024/02/06 11:35:05;;;;;;;7.80;4.30;;;8.40;99.90;;;;;;4994808;28;20463;-73
2024/02/06 11:37:31;;;;;;;4.87;3.70;;;8.40;99.90;;;;;;5003056;28;20210;-74
2024/02/06 11:40:10;;;;;;;5.80;3.73;;;8.40;99.90;;;;;;5013410;28;20513;-74
2024/02/06 11:42:37;;;;;;;5.43;4.13;;;8.40;99.90;;;;;;5022737;28;20204;-74
2024/02/06 11:45:22;;;;;;;7.37;4.50;;;8.40;99.90;;;;;;5007785;28;20454;-74
2024/02/06 11:48:02;;;;;;;4.13;3.30;;;8.40;99.90;;;;;;5021835;28;20470;-74
2024/02/06 11:50:46;;;;;;;5.07;3.80;;;8.40;99.90;;;;;;5007549;28;20435;-74
2024/02/06 11:53:14;;;;;;;6.20;3.80;;;8.40;99.90;;;;;;5029676;28;20439;-74
2024/02/06 11:55:46;;;;;;;6.90;3.87;;;8.50;99.90;;;;;;5024487;28;20475;-73
2024/02/06 11:58:13;;;;;;;4.13;3.33;;;8.50;99.90;;;;;;5007789;28;20909;-73
2024/02/06 12:00:38;;;;;;;6.90;3.90;;;8.50;99.90;;;;;;5008673;28;20416;-74
2024/02/06 12:03:05;;;;;;;4.77;3.70;;;8.50;99.90;;;;;;5008955;28;20899;-74
2024/02/06 12:05:41;;;;;;;7.07;4.10;;;8.50;99.90;;;;;;5024992;28;20177;-73
2024/02/06 12:08:08;;;;;;;6.23;3.83;;;8.50;99.90;;;;;;5011298;28;20941;-74
2024/02/06 12:10:35;;;;;;;7.67;5.00;;;8.50;99.90;;;;;;5024273;28;20439;-73
2024/02/06 12:13:06;;;;;;;5.27;4.00;;;8.60;99.90;;;;;;5007141;28;20430;-74
2024/02/06 12:15:36;;;;;;;6.77;4.90;;;8.60;99.90;;;;;;5023447;28;20478;-74
2024/02/06 12:18:03;;;;;;;6.10;4.10;;;8.60;99.90;;;;;;5024243;28;20527;-73
2024/02/06 12:20:30;;;;;;;7.10;5.10;;;8.60;99.90;;;;;;4985600;28;20424;-75
2024/02/06 12:22:57;;;;;;;5.97;4.00;;;8.70;99.90;;;;;;5007267;28;20988;-74
2024/02/06 12:25:24;;;;;;;19.63;8.20;;;8.70;99.90;;;;;;5007432;28;20485;-73
2024/02/06 12:28:16;;;;;;;28.83;16.03;;;8.80;99.90;;;;;;5006655;28;20450;-74
2024/02/06 12:30:48;;;;;;;32.90;18.07;;;8.80;99.90;;;;;;5026519;28;20439;-73
2024/02/06 12:33:14;;;;;;;34.43;17.90;;;8.90;99.90;;;;;;5005778;28;20529;-73
2024/02/06 12:35:40;;;;;;;16.43;9.97;;;8.90;99.90;;;;;;5011310;28;20959;-73
2024/02/06 12:38:07;;;;;;;26.20;16.03;;;8.90;99.90;;;;;;4989686;28;20524;-73
2024/02/06 12:40:34;;;;;;;17.40;12.20;;;9.00;99.90;;;;;;5007367;28;20643;-74
2024/02/06 12:43:05;;;;;;;11.83;7.47;;;9.00;99.90;;;;;;5005051;28;20439;-73
2024/02/06 12:45:33;;;;;;;17.30;13.00;;;9.00;99.90;;;;;;5025654;28;20438;-75
2024/02/06 12:47:59;;;;;;;8.03;7.23;;;9.00;99.90;;;;;;5005426;28;20436;-74
2024/02/06 12:50:25;;;;;;;10.53;5.20;;;9.00;99.90;;;;;;4991617;28;20440;-73
2024/02/06 12:52:52;;;;;;;5.60;4.00;;;9.10;99.90;;;;;;5006799;28;20423;-74